Bratsk Airport
UIBB : now visible

Airfield :











YOU CAN JOIN US ON...

 
LOGIN :

Register | Disclaimer

   EN    FR    IT 

 









Legend :    VFR   Marginal VFR   IFR   Intensive IFR   Very Intensive IFR
Visi :
Ceiling :
>= 8 km
>= 3000ft
5 to 8 km
1000 to 3000 ft
1500m to 5 km
500 to 1000 ft
800 to 1500m
200 to 500 ft
< 800m
< 200 ft
Symbols :   Thunderstorms  Fog  Heavy snow  Heavy precipitations  Wind > 20 kt






- Airport Elevation : 1610 ft
- IATA code : BTK


UIBB - Bratsk

CURRENT METAR :
  • 250600Z 01003MPS 290V040 9999 SCT040CB 20/09 Q1010 R30/60D NOSIG RMK QFE715/0953

EXPIRED METARs :
  • 250530Z VRB01MPS 9999 SCT040CB 20/10 Q1010 R30/CLRD60 NOSIG RMK QFE715/0953
  • 250500Z VRB01MPS 9999 SCT030CB 20/10 Q1010 R30/CLRD60 NOSIG RMK QFE715/0953
  • 250430Z VRB01MPS 9999 SCT030CB 18/11 Q1010 R30/CLRD60 NOSIG RMK QFE715/0953
  • 250400Z 05003MPS 360V090 9999 BKN030CB 17/11 Q1010 R30/CLRD60 NOSIG RMK QFE715/0953
  • 250330Z 05003MPS 010V070 9999 BKN020CB 16/11 Q1010 R30/60D NOSIG RMK QFE715/0954
  • 250300Z 04002MPS 9999 BKN020CB 18/11 Q1010 R30/CLRD60 NOSIG RMK QFE715/0953
  • 250230Z 07002MPS 350V140 9999 BKN015CB 16/11 Q1011 R30/CLRD60 NOSIG RMK QFE715/0954
  • 250200Z 08002MPS 340V130 9999 BKN015CB 16/11 Q1011 R30/60D NOSIG RMK QFE715/0954
  • 250130Z 06003MPS 030V090 9999 BKN013CB 15/11 Q1011 R30/CLRD60 NOSIG RMK QFE715/0954

TAF TAF UIBB
Valid from the 25 at 06:00 until the 26 at 06:00 UTC


250500Z 2506/2606 02002G07MPS 9999 -SHRA SCT020CB
TEMPO 2506/2518 VRB07MPS -TSRA
UIII FIR / Asia



MET'MAP, your aeronautical weather chart ! - Copyright ORBIFLY December 2007 - Disclaimer

ORBIFLY MET'MAP TEAM :

Programming & Development : Alexandra Zaïnal
Original concept : Baudouin d'Aumeries
Technical & hardware support : Manuel Goepfert
Assistance : Marc-Olivier Méhu




SOURCES & CREDITS :

   NOAA       Earth
Advisory